createdAt,value
2023-04-09T00:00:36.590Z,5.41
2023-04-09T00:03:09.450Z,5.40
2023-04-09T00:05:44.097Z,5.40
2023-04-09T00:08:16.980Z,5.37
2023-04-09T00:10:49.436Z,5.33
2023-04-09T00:13:35.516Z,5.33
2023-04-09T00:16:12.307Z,5.27
2023-04-09T00:18:45.004Z,5.14
2023-04-09T00:21:18.929Z,5.21
2023-04-09T00:23:51.872Z,5.22
2023-04-09T00:26:24.294Z,5.22
2023-04-09T00:28:57.310Z,5.19
2023-04-09T00:31:29.866Z,5.15
2023-04-09T00:34:02.720Z,5.13
2023-04-09T00:36:35.386Z,5.13
2023-04-09T00:39:08.697Z,5.12
2023-04-09T00:41:41.679Z,5.06
2023-04-09T00:44:14.639Z,4.99
2023-04-09T00:46:47.212Z,4.98
2023-04-09T00:49:20.035Z,4.95
2023-04-09T00:51:52.803Z,4.89
2023-04-09T00:54:25.534Z,4.90
2023-04-09T00:56:59.145Z,4.89
2023-04-09T00:59:32.185Z,4.84
2023-04-09T01:02:05.131Z,4.80
2023-04-09T01:04:42.315Z,4.80
2023-04-09T01:07:22.150Z,4.78
2023-04-09T01:10:04.027Z,4.65
2023-04-09T01:12:56.452Z,4.60
2023-04-09T01:15:32.878Z,4.68
2023-04-09T01:18:09.845Z,4.69
2023-04-09T01:20:45.830Z,4.67
2023-04-09T01:23:29.808Z,4.56
2023-04-09T01:26:12.812Z,4.53
2023-04-09T01:28:58.591Z,4.52
2023-04-09T01:31:34.463Z,4.54
2023-04-09T01:34:10.908Z,4.55
2023-04-09T01:36:47.229Z,4.59
2023-04-09T01:39:20.020Z,4.56
2023-04-09T01:41:53.519Z,4.60
2023-04-09T01:44:27.980Z,4.65
2023-04-09T01:47:02.313Z,4.63
2023-04-09T01:49:36.721Z,4.65
2023-04-09T01:52:09.469Z,4.65
2023-04-09T01:54:42.315Z,4.61
2023-04-09T01:57:14.904Z,4.55
2023-04-09T01:59:47.811Z,4.55
2023-04-09T02:02:26.963Z,4.46
2023-04-09T02:05:03.858Z,4.47
2023-04-09T02:07:44.568Z,4.50
2023-04-09T02:10:18.393Z,4.56
2023-04-09T02:12:54.291Z,4.60
2023-04-09T02:15:28.495Z,4.59
2023-04-09T02:18:01.205Z,4.58
2023-04-09T02:20:34.172Z,4.58
2023-04-09T02:23:06.626Z,4.57
2023-04-09T02:25:39.908Z,4.55
2023-04-09T02:28:12.600Z,4.52
2023-04-09T02:30:45.152Z,4.55
2023-04-09T02:33:17.811Z,4.59
2023-04-09T02:35:50.516Z,4.61
2023-04-09T02:38:25.044Z,4.61
2023-04-09T02:40:57.700Z,4.60
2023-04-09T02:43:30.289Z,4.57
2023-04-09T02:46:03.269Z,4.56
2023-04-09T02:48:37.111Z,4.53
2023-04-09T02:51:10.572Z,4.51
2023-04-09T02:53:43.456Z,4.48
2023-04-09T02:56:16.278Z,4.47
2023-04-09T02:58:52.309Z,4.45
2023-04-09T03:01:25.328Z,4.43
2023-04-09T03:03:58.120Z,4.43
2023-04-09T03:06:31.222Z,4.44
2023-04-09T03:09:03.887Z,4.45
2023-04-09T03:11:36.465Z,4.44
2023-04-09T03:14:08.991Z,4.43
2023-04-09T03:16:41.707Z,4.43
2023-04-09T03:19:15.074Z,4.44
2023-04-09T03:21:46.763Z,4.45
2023-04-09T03:24:19.273Z,4.43
2023-04-09T03:26:52.246Z,4.43
2023-04-09T03:29:24.876Z,4.43
2023-04-09T03:31:57.915Z,4.42
2023-04-09T03:34:30.617Z,4.42
2023-04-09T03:37:03.245Z,4.45
2023-04-09T03:39:37.512Z,4.47
2023-04-09T03:42:10.015Z,4.49
2023-04-09T03:44:49.086Z,4.51
2023-04-09T03:47:29.820Z,4.51
2023-04-09T03:50:02.730Z,4.53
2023-04-09T03:52:46.466Z,4.55
2023-04-09T03:55:18.916Z,4.56
2023-04-09T03:57:52.489Z,4.59
2023-04-09T04:00:26.569Z,4.63
2023-04-09T04:03:23.090Z,4.61
2023-04-09T04:06:11.347Z,4.56
2023-04-09T04:08:56.381Z,4.58
2023-04-09T04:11:36.170Z,4.62
2023-04-09T04:14:08.834Z,4.64
2023-04-09T04:16:41.911Z,4.67
2023-04-09T04:19:15.520Z,4.69
2023-04-09T04:21:51.531Z,4.72
2023-04-09T04:24:25.156Z,4.74
2023-04-09T04:26:58.723Z,4.77
2023-04-09T04:29:37.924Z,4.79
2023-04-09T04:32:19.233Z,4.82
2023-04-09T04:34:54.171Z,4.81
2023-04-09T04:37:30.192Z,4.81
2023-04-09T04:40:05.015Z,4.83
2023-04-09T04:42:38.729Z,4.84
2023-04-09T04:45:15.964Z,4.85
2023-04-09T04:48:01.669Z,4.89
2023-04-09T04:50:34.592Z,4.92
2023-04-09T04:53:10.231Z,4.92
2023-04-09T04:55:49.252Z,4.96
2023-04-09T04:58:23.506Z,5.01
2023-04-09T05:01:00.698Z,5.04
2023-04-09T05:03:33.879Z,5.08
2023-04-09T05:06:18.929Z,5.11
2023-04-09T05:08:52.678Z,5.14
2023-04-09T05:11:25.573Z,5.17
2023-04-09T05:13:58.015Z,5.18
2023-04-09T05:16:30.863Z,5.19
2023-04-09T05:19:09.311Z,5.18
2023-04-09T05:21:46.822Z,5.21
2023-04-09T05:24:21.708Z,5.22
2023-04-09T05:26:54.416Z,5.25
2023-04-09T05:29:26.981Z,5.24
2023-04-09T05:31:59.672Z,5.27
2023-04-09T05:34:37.220Z,5.28
2023-04-09T05:37:11.268Z,5.30
2023-04-09T05:39:42.616Z,5.32
2023-04-09T05:42:15.307Z,5.32
2023-04-09T05:45:03.938Z,5.37
2023-04-09T05:47:38.738Z,5.43
2023-04-09T05:50:19.291Z,5.47
2023-04-09T05:52:53.787Z,5.49
2023-04-09T05:55:27.043Z,5.50
2023-04-09T05:58:03.834Z,5.57
2023-04-09T06:00:36.954Z,5.61
2023-04-09T06:03:10.761Z,5.62
2023-04-09T06:05:44.414Z,5.69
2023-04-09T06:08:17.214Z,5.76
2023-04-09T06:10:49.717Z,5.82
2023-04-09T06:13:22.674Z,5.87
2023-04-09T06:15:57.044Z,5.87
2023-04-09T06:18:30.200Z,5.86
2023-04-09T06:21:08.139Z,5.92
2023-04-09T06:23:40.998Z,5.97
2023-04-09T06:26:17.797Z,5.99
2023-04-09T06:28:50.394Z,6.02
2023-04-09T06:31:22.963Z,6.06
2023-04-09T06:33:56.138Z,6.11
2023-04-09T06:36:27.638Z,6.14
2023-04-09T06:39:00.905Z,6.13
2023-04-09T06:41:33.492Z,6.16
2023-04-09T06:44:09.867Z,6.18
2023-04-09T06:46:43.241Z,6.21
2023-04-09T06:49:16.364Z,6.21
2023-04-09T06:51:48.914Z,6.22
2023-04-09T06:54:21.482Z,6.23
2023-04-09T06:56:55.338Z,6.26
2023-04-09T06:59:28.195Z,6.28
2023-04-09T07:02:00.732Z,6.24
2023-04-09T07:04:35.175Z,6.21
2023-04-09T07:07:08.025Z,6.26
2023-04-09T07:09:40.797Z,6.29
2023-04-09T07:12:13.493Z,6.33
2023-04-09T07:14:46.293Z,6.39
2023-04-09T07:17:19.751Z,6.40
2023-04-09T07:19:53.073Z,6.42
2023-04-09T07:22:27.610Z,6.43
2023-04-09T07:25:00.283Z,6.46
2023-04-09T07:27:33.733Z,6.48
2023-04-09T07:30:07.461Z,6.46
2023-04-09T07:32:40.596Z,6.46
2023-04-09T07:35:13.684Z,6.44
2023-04-09T07:37:46.704Z,6.52
2023-04-09T07:40:19.426Z,6.60
2023-04-09T07:42:54.212Z,6.68
2023-04-09T07:45:26.693Z,6.77
2023-04-09T07:48:00.181Z,6.83
2023-04-09T07:50:33.494Z,6.89
2023-04-09T07:53:06.193Z,6.98
2023-04-09T07:55:42.132Z,7.07
2023-04-09T07:58:15.046Z,7.16
2023-04-09T08:00:47.705Z,7.24
2023-04-09T08:03:23.258Z,7.25
2023-04-09T08:05:56.048Z,7.31
2023-04-09T08:08:28.861Z,7.43
2023-04-09T08:11:04.117Z,7.52
2023-04-09T08:13:37.465Z,7.71
2023-04-09T08:16:11.992Z,7.88
2023-04-09T08:18:44.827Z,8.10
2023-04-09T08:21:17.466Z,8.30
2023-04-09T08:23:50.294Z,8.29
2023-04-09T08:26:22.810Z,8.43
2023-04-09T08:28:55.684Z,8.55
2023-04-09T08:31:28.958Z,8.70
2023-04-09T08:34:02.457Z,8.78
2023-04-09T08:36:36.591Z,8.82
2023-04-09T08:39:13.424Z,8.75
2023-04-09T08:41:51.753Z,8.83
2023-04-09T08:44:27.878Z,9.03
2023-04-09T08:47:01.541Z,9.18
2023-04-09T08:49:32.896Z,9.30
2023-04-09T08:52:05.693Z,9.38
2023-04-09T08:54:40.597Z,9.51
2023-04-09T08:57:13.565Z,9.73
2023-04-09T08:59:46.838Z,10.06
2023-04-09T09:02:19.599Z,10.34
2023-04-09T09:04:55.601Z,10.48
2023-04-09T09:07:29.409Z,10.53
2023-04-09T09:10:03.999Z,10.78
2023-04-09T09:12:40.310Z,10.96
2023-04-09T09:15:29.575Z,10.90
2023-04-09T09:18:04.218Z,10.93
2023-04-09T09:20:38.229Z,11.13
2023-04-09T09:23:10.807Z,11.26
2023-04-09T09:25:44.408Z,11.25
2023-04-09T09:28:15.002Z,11.11
2023-04-09T09:30:49.262Z,11.01
2023-04-09T09:33:22.191Z,10.96
2023-04-09T09:35:58.054Z,10.93
2023-04-09T09:38:31.005Z,10.89
2023-04-09T09:41:20.200Z,10.83
2023-04-09T09:43:53.298Z,10.68
2023-04-09T09:46:26.821Z,10.65
2023-04-09T09:49:00.478Z,10.79
2023-04-09T09:51:37.591Z,11.26
2023-04-09T09:54:13.310Z,11.50
2023-04-09T09:56:47.345Z,11.48
2023-04-09T09:59:24.577Z,11.21
2023-04-09T10:02:02.267Z,10.91
2023-04-09T10:04:38.421Z,10.89
2023-04-09T10:07:11.355Z,10.91
2023-04-09T10:09:50.197Z,11.06
2023-04-09T10:12:25.006Z,11.16
2023-04-09T10:15:04.645Z,11.16
2023-04-09T10:17:37.316Z,10.94
2023-04-09T10:20:16.279Z,11.07
2023-04-09T10:22:50.591Z,11.14
2023-04-09T10:25:23.648Z,11.12
2023-04-09T10:28:04.932Z,11.53
2023-04-09T10:30:38.432Z,12.00
2023-04-09T10:33:15.802Z,12.27
2023-04-09T10:35:50.471Z,12.22
2023-04-09T10:38:37.634Z,12.04
2023-04-09T10:41:23.591Z,11.68
2023-04-09T10:43:56.185Z,11.64
2023-04-09T10:46:32.915Z,11.72
2023-04-09T10:49:18.108Z,11.71
2023-04-09T10:51:55.423Z,11.54
2023-04-09T10:54:46.867Z,11.74
2023-04-09T10:57:21.418Z,11.94
2023-04-09T10:59:57.183Z,12.16
2023-04-09T11:02:56.838Z,12.29
2023-04-09T11:05:38.677Z,12.32
2023-04-09T11:08:13.052Z,12.11
2023-04-09T11:10:49.122Z,12.21
2023-04-09T11:13:23.502Z,12.28
2023-04-09T11:15:57.208Z,12.25
2023-04-09T11:18:31.713Z,12.34
2023-04-09T11:21:05.278Z,12.33
2023-04-09T11:23:37.992Z,12.33
2023-04-09T11:26:14.013Z,12.23
2023-04-09T11:28:47.101Z,12.25
2023-04-09T11:31:19.462Z,12.28
2023-04-09T11:33:55.841Z,12.23
2023-04-09T11:36:28.981Z,12.13
2023-04-09T11:39:04.504Z,12.08
2023-04-09T11:41:42.661Z,12.09
2023-04-09T11:44:16.009Z,12.11
2023-04-09T11:46:49.356Z,12.07
2023-04-09T11:49:20.113Z,12.02
2023-04-09T11:51:53.586Z,11.83
2023-04-09T11:54:24.501Z,11.84
2023-04-09T11:56:57.949Z,11.74
2023-04-09T11:59:30.600Z,11.76
2023-04-09T12:02:03.625Z,11.71
2023-04-09T12:04:36.524Z,11.66
2023-04-09T12:07:11.902Z,11.65
2023-04-09T12:09:51.984Z,11.59
2023-04-09T12:12:27.744Z,11.57
2023-04-09T12:15:00.294Z,11.53
2023-04-09T12:17:34.614Z,11.51
2023-04-09T12:20:10.398Z,11.50
2023-04-09T12:22:43.886Z,11.45
2023-04-09T12:25:16.605Z,11.41
2023-04-09T12:27:49.250Z,11.38
2023-04-09T12:30:23.497Z,11.34
2023-04-09T12:32:57.014Z,11.31
2023-04-09T12:35:30.503Z,11.18
2023-04-09T12:38:03.098Z,11.09
2023-04-09T12:40:36.883Z,10.93
2023-04-09T12:43:09.763Z,10.87
2023-04-09T12:45:42.860Z,10.84
2023-04-09T12:48:15.428Z,10.75
2023-04-09T12:50:53.761Z,10.69
2023-04-09T12:53:34.534Z,10.68
2023-04-09T12:56:15.811Z,10.78
2023-04-09T12:58:55.320Z,10.79
2023-04-09T13:01:30.787Z,10.85
2023-04-09T13:04:07.725Z,10.93
2023-04-09T13:06:53.573Z,11.01
2023-04-09T13:09:30.364Z,11.01
2023-04-09T13:12:06.533Z,11.10
2023-04-09T13:14:48.310Z,11.21
2023-04-09T13:17:30.749Z,11.27
2023-04-09T13:20:07.545Z,11.22
2023-04-09T13:22:49.610Z,11.29
2023-04-09T13:25:24.538Z,11.48
2023-04-09T13:28:03.120Z,11.46
2023-04-09T13:30:39.018Z,11.44
2023-04-09T13:33:16.195Z,11.54
2023-04-09T13:35:54.840Z,11.67
2023-04-09T13:38:30.491Z,11.79
2023-04-09T13:41:04.635Z,11.85
2023-04-09T13:43:45.627Z,11.93
2023-04-09T13:46:18.773Z,11.94
2023-04-09T13:48:56.332Z,11.93
2023-04-09T13:51:33.800Z,11.95
2023-04-09T13:54:08.699Z,11.93
2023-04-09T13:56:43.433Z,11.90
2023-04-09T13:59:26.709Z,11.81
2023-04-09T14:02:02.324Z,11.83
2023-04-09T14:04:43.270Z,11.73
2023-04-09T14:07:19.225Z,11.66
2023-04-09T14:09:58.024Z,11.62
2023-04-09T14:12:33.464Z,11.65
2023-04-09T14:15:10.414Z,11.68
2023-04-09T14:17:45.130Z,11.68
2023-04-09T14:20:25.713Z,11.61
2023-04-09T14:23:17.577Z,11.61
2023-04-09T14:25:54.737Z,11.65
2023-04-09T14:28:29.761Z,11.68
2023-04-09T14:31:05.848Z,11.66
2023-04-09T14:33:40.356Z,11.68
2023-04-09T14:36:19.708Z,11.69
2023-04-09T14:39:01.085Z,11.75
2023-04-09T14:41:40.286Z,11.75
2023-04-09T14:44:18.649Z,11.77
2023-04-09T14:47:00.818Z,11.75
2023-04-09T14:49:40.149Z,11.66
2023-04-09T14:52:17.903Z,11.68
2023-04-09T14:54:50.726Z,11.76
2023-04-09T14:57:23.355Z,11.82
2023-04-09T15:00:02.903Z,11.80
2023-04-09T15:02:45.256Z,11.70
2023-04-09T15:05:23.279Z,11.72
2023-04-09T15:08:11.024Z,11.70
2023-04-09T15:10:46.806Z,11.72
2023-04-09T15:13:24.628Z,11.72
2023-04-09T15:15:57.477Z,11.71
2023-04-09T15:18:31.854Z,11.68
2023-04-09T15:21:07.750Z,11.59
2023-04-09T15:23:42.171Z,11.62
2023-04-09T15:26:17.587Z,11.68
2023-04-09T15:28:54.455Z,11.77
2023-04-09T15:31:29.409Z,11.79
2023-04-09T15:34:06.276Z,11.82
2023-04-09T15:36:41.480Z,11.83
2023-04-09T15:39:14.580Z,11.83
2023-04-09T15:41:47.535Z,11.87
2023-04-09T15:44:24.040Z,11.87
2023-04-09T15:46:58.494Z,11.80
2023-04-09T15:49:32.630Z,11.73
2023-04-09T15:52:06.164Z,11.76
2023-04-09T15:54:36.841Z,11.76
2023-04-09T15:57:10.794Z,11.72
2023-04-09T15:59:45.461Z,11.76
2023-04-09T16:02:19.210Z,11.76
2023-04-09T16:04:53.096Z,11.76
2023-04-09T16:07:28.212Z,11.76
2023-04-09T16:10:01.800Z,11.75
2023-04-09T16:12:34.693Z,11.72
2023-04-09T16:15:11.616Z,11.72
2023-04-09T16:17:46.789Z,11.67
2023-04-09T16:20:19.936Z,11.67
2023-04-09T16:22:52.612Z,11.66
2023-04-09T16:25:27.287Z,11.64
2023-04-09T16:28:01.885Z,11.64
2023-04-09T16:30:34.740Z,11.62
2023-04-09T16:33:08.925Z,11.55
2023-04-09T16:35:43.853Z,11.54
2023-04-09T16:38:18.803Z,11.50
2023-04-09T16:40:53.614Z,11.47
2023-04-09T16:43:30.958Z,11.41
2023-04-09T16:46:09.664Z,11.37
2023-04-09T16:48:43.542Z,11.34
2023-04-09T16:51:18.286Z,11.29
2023-04-09T16:53:51.560Z,11.22
2023-04-09T16:56:25.538Z,11.19
2023-04-09T16:59:00.432Z,11.15
2023-04-09T17:01:33.677Z,11.10
2023-04-09T17:04:07.880Z,11.05
2023-04-09T17:06:40.575Z,11.00
2023-04-09T17:09:14.924Z,10.94
2023-04-09T17:11:53.535Z,10.88
2023-04-09T17:14:29.756Z,10.83
2023-04-09T17:17:05.299Z,10.76
2023-04-09T17:19:42.799Z,10.71
2023-04-09T17:22:18.227Z,10.65
2023-04-09T17:24:53.713Z,10.60
2023-04-09T17:27:29.809Z,10.54
2023-04-09T17:30:02.586Z,10.42
2023-04-09T17:32:37.607Z,10.29
2023-04-09T17:35:13.330Z,10.14
2023-04-09T17:37:48.716Z,10.05
2023-04-09T17:40:24.074Z,9.93
2023-04-09T17:43:00.945Z,9.80
2023-04-09T17:45:35.433Z,9.78
2023-04-09T17:48:12.815Z,9.81
2023-04-09T17:50:47.594Z,9.85
2023-04-09T17:53:22.342Z,9.85
2023-04-09T17:55:55.341Z,9.83
2023-04-09T17:58:28.813Z,9.78
2023-04-09T18:01:03.131Z,9.73
2023-04-09T18:03:37.177Z,9.65
2023-04-09T18:06:12.120Z,9.67
2023-04-09T18:08:46.726Z,9.63
2023-04-09T18:11:22.099Z,9.53
2023-04-09T18:13:57.028Z,9.50
2023-04-09T18:16:29.860Z,9.47
2023-04-09T18:19:06.843Z,9.41
2023-04-09T18:21:43.640Z,9.38
2023-04-09T18:24:18.372Z,9.34
2023-04-09T18:26:53.011Z,9.31
2023-04-09T18:29:29.905Z,9.26
2023-04-09T18:32:06.096Z,9.24
2023-04-09T18:34:42.173Z,9.20
2023-04-09T18:37:18.495Z,9.18
2023-04-09T18:39:52.889Z,9.15
2023-04-09T18:42:28.201Z,9.12
2023-04-09T18:45:03.488Z,9.16
2023-04-09T18:47:38.641Z,9.16
2023-04-09T18:50:15.494Z,9.17
2023-04-09T18:52:50.315Z,9.15
2023-04-09T18:55:25.299Z,9.13
2023-04-09T18:57:59.505Z,9.15
2023-04-09T19:00:35.492Z,9.16
2023-04-09T19:03:11.935Z,9.16
2023-04-09T19:05:47.995Z,9.12
2023-04-09T19:08:23.039Z,9.08
2023-04-09T19:10:58.028Z,9.08
2023-04-09T19:13:32.923Z,9.06
2023-04-09T19:16:09.977Z,9.07
2023-04-09T19:18:50.407Z,9.06
2023-04-09T19:21:25.017Z,9.04
2023-04-09T19:24:01.222Z,9.03
2023-04-09T19:26:34.598Z,9.01
2023-04-09T19:29:07.713Z,8.99
2023-04-09T19:31:41.979Z,8.98
2023-04-09T19:34:15.388Z,8.96
2023-04-09T19:36:49.021Z,8.94
2023-04-09T19:39:19.868Z,8.92
2023-04-09T19:41:53.024Z,8.86
2023-04-09T19:44:25.704Z,8.88
2023-04-09T19:47:00.521Z,8.88
2023-04-09T19:49:33.923Z,8.86
2023-04-09T19:52:08.595Z,8.85
2023-04-09T19:54:41.540Z,8.84
2023-04-09T19:57:15.544Z,8.83
2023-04-09T19:59:53.463Z,8.81
2023-04-09T20:02:27.160Z,8.79
2023-04-09T20:04:57.883Z,8.76
2023-04-09T20:07:30.553Z,8.70
2023-04-09T20:10:03.268Z,8.71
2023-04-09T20:12:36.083Z,8.68
2023-04-09T20:15:11.622Z,8.61
2023-04-09T20:17:44.228Z,8.62
2023-04-09T20:20:20.689Z,8.67
2023-04-09T20:22:56.595Z,8.62
2023-04-09T20:25:34.692Z,8.60
2023-04-09T20:28:10.218Z,8.58
2023-04-09T20:30:43.213Z,8.57
2023-04-09T20:33:16.170Z,8.58
2023-04-09T20:35:50.118Z,8.55
2023-04-09T20:38:22.828Z,8.55
2023-04-09T20:40:58.781Z,8.58
2023-04-09T20:43:31.627Z,8.56
2023-04-09T20:46:05.367Z,8.53
2023-04-09T20:48:38.267Z,8.51
2023-04-09T20:51:14.171Z,8.53
2023-04-09T20:53:46.920Z,8.48
2023-04-09T20:56:19.588Z,8.46
2023-04-09T20:58:52.931Z,8.42
2023-04-09T21:01:27.532Z,8.41
2023-04-09T21:04:00.231Z,8.39
2023-04-09T21:06:33.404Z,8.36
2023-04-09T21:09:06.328Z,8.31
2023-04-09T21:11:38.735Z,8.25
2023-04-09T21:14:13.263Z,8.22
2023-04-09T21:16:46.199Z,8.19
2023-04-09T21:19:18.931Z,8.12
2023-04-09T21:21:51.774Z,8.09
2023-04-09T21:24:24.684Z,8.07
2023-04-09T21:26:57.853Z,8.03
2023-04-09T21:29:30.451Z,7.99
2023-04-09T21:32:02.807Z,7.97
2023-04-09T21:34:35.535Z,7.95
2023-04-09T21:37:08.672Z,7.94
2023-04-09T21:39:41.268Z,7.94
2023-04-09T21:42:15.028Z,7.94
2023-04-09T21:44:46.027Z,7.91
2023-04-09T21:47:18.435Z,7.86
2023-04-09T21:49:51.918Z,7.87
2023-04-09T21:52:24.709Z,7.83
2023-04-09T21:54:57.484Z,7.78
2023-04-09T21:57:30.075Z,7.80
2023-04-09T22:00:02.844Z,7.81
2023-04-09T22:02:40.496Z,7.83
2023-04-09T22:05:14.259Z,7.88
2023-04-09T22:07:45.574Z,7.88
2023-04-09T22:10:16.618Z,7.83
2023-04-09T22:12:47.120Z,7.81
2023-04-09T22:15:18.221Z,7.82
2023-04-09T22:17:48.907Z,7.86
2023-04-09T22:20:19.512Z,7.87
2023-04-09T22:22:50.092Z,7.86
2023-04-09T22:25:20.906Z,7.85
2023-04-09T22:27:53.829Z,7.86
2023-04-09T22:30:24.962Z,7.85
2023-04-09T22:32:55.647Z,7.84
2023-04-09T22:35:26.434Z,7.83
2023-04-09T22:37:56.858Z,7.82
2023-04-09T22:40:27.638Z,7.80
2023-04-09T22:42:58.208Z,7.81
2023-04-09T22:45:30.848Z,7.81
2023-04-09T22:48:01.472Z,7.77
2023-04-09T22:50:32.462Z,7.76
2023-04-09T22:53:03.516Z,7.72
2023-04-09T22:55:35.996Z,7.70
2023-04-09T22:58:07.118Z,7.70
2023-04-09T23:00:37.934Z,7.68
2023-04-09T23:03:08.729Z,7.68
2023-04-09T23:05:39.892Z,7.68
2023-04-09T23:08:10.469Z,7.65
2023-04-09T23:10:41.463Z,7.61
2023-04-09T23:13:14.266Z,7.60
2023-04-09T23:15:45.034Z,7.54
2023-04-09T23:18:16.832Z,7.52
2023-04-09T23:20:47.474Z,7.49
2023-04-09T23:23:18.040Z,7.47
2023-04-09T23:25:49.244Z,7.41
2023-04-09T23:28:19.904Z,7.37
2023-04-09T23:30:51.461Z,7.33
2023-04-09T23:33:22.154Z,7.28
2023-04-09T23:35:53.002Z,7.25
2023-04-09T23:38:23.777Z,7.24
2023-04-09T23:40:54.616Z,7.21
2023-04-09T23:43:25.190Z,7.19
2023-04-09T23:45:56.001Z,7.16
2023-04-09T23:48:26.783Z,7.15
2023-04-09T23:50:57.542Z,7.12
2023-04-09T23:53:28.196Z,7.06
2023-04-09T23:55:58.934Z,7.03
2023-04-09T23:58:29.463Z,6.98
